sensor_id;sensor_type;location;lat;lon;timestamp;temperature;humidity
17423;DHT22;8829;47.932;7.810;2022-12-18T00:00:40;-8.10;99.90
17423;DHT22;8829;47.932;7.810;2022-12-18T00:03:07;-8.00;99.90
17423;DHT22;8829;47.932;7.810;2022-12-18T00:05:34;-8.10;99.90
17423;DHT22;8829;47.932;7.810;2022-12-18T00:08:00;-8.20;99.90
17423;DHT22;8829;47.932;7.810;2022-12-18T00:10:29;-8.20;99.90
17423;DHT22;8829;47.932;7.810;2022-12-18T00:12:56;-8.20;99.90
17423;DHT22;8829;47.932;7.810;2022-12-18T00:15:23;-8.20;99.90
17423;DHT22;8829;47.932;7.810;2022-12-18T00:17:49;-8.30;99.90
17423;DHT22;8829;47.932;7.810;2022-12-18T00:20:16;-8.60;99.90
17423;DHT22;8829;47.932;7.810;2022-12-18T00:22:47;-8.70;99.90
17423;DHT22;8829;47.932;7.810;2022-12-18T00:25:14;-8.50;99.90
17423;DHT22;8829;47.932;7.810;2022-12-18T00:27:42;-8.40;99.90
17423;DHT22;8829;47.932;7.810;2022-12-18T00:30:10;-8.60;99.90
17423;DHT22;8829;47.932;7.810;2022-12-18T00:32:37;-8.60;99.90
17423;DHT22;8829;47.932;7.810;2022-12-18T00:35:04;-8.50;99.90
17423;DHT22;8829;47.932;7.810;2022-12-18T00:37:33;-8.40;99.90
17423;DHT22;8829;47.932;7.810;2022-12-18T00:40:00;-8.30;99.90
17423;DHT22;8829;47.932;7.810;2022-12-18T00:42:26;-8.30;99.90
17423;DHT22;8829;47.932;7.810;2022-12-18T00:45:12;-8.20;99.90
17423;DHT22;8829;47.932;7.810;2022-12-18T00:47:39;-8.10;99.90
17423;DHT22;8829;47.932;7.810;2022-12-18T00:50:07;-8.00;99.90
17423;DHT22;8829;47.932;7.810;2022-12-18T00:52:34;-8.00;99.90
17423;DHT22;8829;47.932;7.810;2022-12-18T00:55:01;-8.00;99.90
17423;DHT22;8829;47.932;7.810;2022-12-18T00:57:28;-7.90;99.90
17423;DHT22;8829;47.932;7.810;2022-12-18T00:59:55;-7.90;99.90
17423;DHT22;8829;47.932;7.810;2022-12-18T01:02:23;-7.80;99.90
17423;DHT22;8829;47.932;7.810;2022-12-18T01:04:50;-7.80;99.90
17423;DHT22;8829;47.932;7.810;2022-12-18T01:07:16;-7.90;99.90
17423;DHT22;8829;47.932;7.810;2022-12-18T01:09:43;-8.00;99.90
17423;DHT22;8829;47.932;7.810;2022-12-18T01:12:10;-8.00;99.90
17423;DHT22;8829;47.932;7.810;2022-12-18T01:14:37;-8.00;99.90
17423;DHT22;8829;47.932;7.810;2022-12-18T01:17:04;-7.90;99.90
17423;DHT22;8829;47.932;7.810;2022-12-18T01:19:33;-8.00;99.90
17423;DHT22;8829;47.932;7.810;2022-12-18T01:21:59;-8.10;99.90
17423;DHT22;8829;47.932;7.810;2022-12-18T01:24:26;-8.10;99.90
17423;DHT22;8829;47.932;7.810;2022-12-18T01:26:53;-7.90;99.90
17423;DHT22;8829;47.932;7.810;2022-12-18T01:29:19;-7.80;99.90
17423;DHT22;8829;47.932;7.810;2022-12-18T01:31:46;-7.90;99.90
17423;DHT22;8829;47.932;7.810;2022-12-18T01:34:13;-8.10;99.90
17423;DHT22;8829;47.932;7.810;2022-12-18T01:36:41;-8.10;99.90
17423;DHT22;8829;47.932;7.810;2022-12-18T01:39:11;-8.00;99.90
17423;DHT22;8829;47.932;7.810;2022-12-18T01:41:38;-8.10;99.90
17423;DHT22;8829;47.932;7.810;2022-12-18T01:44:57;-8.00;99.90
17423;DHT22;8829;47.932;7.810;2022-12-18T01:47:27;-8.00;99.90
17423;DHT22;8829;47.932;7.810;2022-12-18T01:49:56;-7.90;99.90
17423;DHT22;8829;47.932;7.810;2022-12-18T01:52:27;-8.00;99.90
17423;DHT22;8829;47.932;7.810;2022-12-18T01:54:54;-7.90;99.90
17423;DHT22;8829;47.932;7.810;2022-12-18T01:57:22;-7.80;99.90
17423;DHT22;8829;47.932;7.810;2022-12-18T01:59:53;-7.90;99.90
17423;DHT22;8829;47.932;7.810;2022-12-18T02:02:20;-7.90;99.90
17423;DHT22;8829;47.932;7.810;2022-12-18T02:04:47;-7.90;99.90
17423;DHT22;8829;47.932;7.810;2022-12-18T02:07:21;-7.90;99.90
17423;DHT22;8829;47.932;7.810;2022-12-18T02:09:57;-7.90;99.90
17423;DHT22;8829;47.932;7.810;2022-12-18T02:12:30;-8.00;99.90
17423;DHT22;8829;47.932;7.810;2022-12-18T02:15:02;-8.00;99.90
17423;DHT22;8829;47.932;7.810;2022-12-18T02:17:35;-8.00;99.90
17423;DHT22;8829;47.932;7.810;2022-12-18T02:20:09;-8.00;99.90
17423;DHT22;8829;47.932;7.810;2022-12-18T02:22:45;-8.00;99.90
17423;DHT22;8829;47.932;7.810;2022-12-18T02:25:25;-8.10;99.90
17423;DHT22;8829;47.932;7.810;2022-12-18T02:27:56;-8.20;99.90
17423;DHT22;8829;47.932;7.810;2022-12-18T02:30:24;-8.10;99.90
17423;DHT22;8829;47.932;7.810;2022-12-18T02:32:53;-8.20;99.90
17423;DHT22;8829;47.932;7.810;2022-12-18T02:35:23;-8.10;99.90
17423;DHT22;8829;47.932;7.810;2022-12-18T02:37:51;-8.10;99.90
17423;DHT22;8829;47.932;7.810;2022-12-18T02:40:21;-8.20;99.90
17423;DHT22;8829;47.932;7.810;2022-12-18T02:42:48;-8.10;99.90
17423;DHT22;8829;47.932;7.810;2022-12-18T02:45:16;-8.00;99.90
17423;DHT22;8829;47.932;7.810;2022-12-18T02:47:47;-8.00;99.90
17423;DHT22;8829;47.932;7.810;2022-12-18T02:50:19;-8.20;99.90
17423;DHT22;8829;47.932;7.810;2022-12-18T02:52:55;-8.20;99.90
17423;DHT22;8829;47.932;7.810;2022-12-18T02:55:42;-8.40;99.90
17423;DHT22;8829;47.932;7.810;2022-12-18T02:58:15;-8.30;99.90
17423;DHT22;8829;47.932;7.810;2022-12-18T03:00:50;-8.30;99.90
17423;DHT22;8829;47.932;7.810;2022-12-18T03:03:24;-8.10;99.90
17423;DHT22;8829;47.932;7.810;2022-12-18T03:05:55;-8.00;99.90
17423;DHT22;8829;47.932;7.810;2022-12-18T03:08:27;-8.10;99.90
17423;DHT22;8829;47.932;7.810;2022-12-18T03:10:58;-8.10;99.90
17423;DHT22;8829;47.932;7.810;2022-12-18T03:13:30;-7.90;99.90
17423;DHT22;8829;47.932;7.810;2022-12-18T03:16:00;-7.80;99.90
17423;DHT22;8829;47.932;7.810;2022-12-18T03:18:32;-7.70;99.90
17423;DHT22;8829;47.932;7.810;2022-12-18T03:21:04;-8.10;99.90
17423;DHT22;8829;47.932;7.810;2022-12-18T03:23:34;-8.20;99.90
17423;DHT22;8829;47.932;7.810;2022-12-18T03:26:05;-8.30;99.90
17423;DHT22;8829;47.932;7.810;2022-12-18T03:28:35;-8.50;99.90
17423;DHT22;8829;47.932;7.810;2022-12-18T03:31:08;-8.50;99.90
17423;DHT22;8829;47.932;7.810;2022-12-18T03:33:39;-8.80;99.90
17423;DHT22;8829;47.932;7.810;2022-12-18T03:36:08;-8.80;99.90
17423;DHT22;8829;47.932;7.810;2022-12-18T03:38:35;-8.80;99.90
17423;DHT22;8829;47.932;7.810;2022-12-18T03:41:06;-8.70;99.90
17423;DHT22;8829;47.932;7.810;2022-12-18T03:43:39;-8.80;99.90
17423;DHT22;8829;47.932;7.810;2022-12-18T03:46:17;-8.90;99.90
17423;DHT22;8829;47.932;7.810;2022-12-18T03:48:51;-8.90;99.90
17423;DHT22;8829;47.932;7.810;2022-12-18T03:51:24;-8.90;99.90
17423;DHT22;8829;47.932;7.810;2022-12-18T03:53:55;-8.80;99.90
17423;DHT22;8829;47.932;7.810;2022-12-18T03:56:26;-8.50;99.90
17423;DHT22;8829;47.932;7.810;2022-12-18T03:58:55;-8.40;99.90
17423;DHT22;8829;47.932;7.810;2022-12-18T04:01:29;-8.30;99.90
17423;DHT22;8829;47.932;7.810;2022-12-18T04:03:59;-8.60;99.90
17423;DHT22;8829;47.932;7.810;2022-12-18T04:06:26;-8.60;99.90
17423;DHT22;8829;47.932;7.810;2022-12-18T04:08:54;-8.50;99.90
17423;DHT22;8829;47.932;7.810;2022-12-18T04:11:22;-8.50;99.90
17423;DHT22;8829;47.932;7.810;2022-12-18T04:13:49;-8.50;99.90
17423;DHT22;8829;47.932;7.810;2022-12-18T04:16:16;-8.70;99.90
17423;DHT22;8829;47.932;7.810;2022-12-18T04:18:44;-8.80;99.90
17423;DHT22;8829;47.932;7.810;2022-12-18T04:21:11;-9.00;99.90
17423;DHT22;8829;47.932;7.810;2022-12-18T04:23:37;-9.00;99.90
17423;DHT22;8829;47.932;7.810;2022-12-18T04:26:04;-9.10;99.90
17423;DHT22;8829;47.932;7.810;2022-12-18T04:28:31;-9.10;99.90
17423;DHT22;8829;47.932;7.810;2022-12-18T04:30:58;-8.90;99.90
17423;DHT22;8829;47.932;7.810;2022-12-18T04:33:25;-8.80;99.90
17423;DHT22;8829;47.932;7.810;2022-12-18T04:35:53;-8.90;99.90
17423;DHT22;8829;47.932;7.810;2022-12-18T04:38:20;-8.90;99.90
17423;DHT22;8829;47.932;7.810;2022-12-18T04:40:46;-9.00;99.90
17423;DHT22;8829;47.932;7.810;2022-12-18T04:43:13;-9.10;99.90
17423;DHT22;8829;47.932;7.810;2022-12-18T04:45:40;-9.00;99.90
17423;DHT22;8829;47.932;7.810;2022-12-18T04:48:07;-9.00;99.90
17423;DHT22;8829;47.932;7.810;2022-12-18T04:50:34;-8.90;99.90
17423;DHT22;8829;47.932;7.810;2022-12-18T04:53:02;-8.80;99.90
17423;DHT22;8829;47.932;7.810;2022-12-18T04:55:29;-8.80;99.90
17423;DHT22;8829;47.932;7.810;2022-12-18T04:57:55;-8.70;99.90
17423;DHT22;8829;47.932;7.810;2022-12-18T05:00:22;-8.80;99.90
17423;DHT22;8829;47.932;7.810;2022-12-18T05:02:49;-8.90;99.90
17423;DHT22;8829;47.932;7.810;2022-12-18T05:05:16;-8.90;99.90
17423;DHT22;8829;47.932;7.810;2022-12-18T05:07:43;-8.90;99.90
17423;DHT22;8829;47.932;7.810;2022-12-18T05:10:11;-8.80;99.90
17423;DHT22;8829;47.932;7.810;2022-12-18T05:12:38;-8.80;99.90
17423;DHT22;8829;47.932;7.810;2022-12-18T05:15:23;-8.90;99.90
17423;DHT22;8829;47.932;7.810;2022-12-18T05:17:50;-8.80;99.90
17423;DHT22;8829;47.932;7.810;2022-12-18T05:20:17;-8.80;99.90
17423;DHT22;8829;47.932;7.810;2022-12-18T05:22:44;-8.80;99.90
17423;DHT22;8829;47.932;7.810;2022-12-18T05:25:12;-8.70;99.90
17423;DHT22;8829;47.932;7.810;2022-12-18T05:27:39;-8.60;99.90
17423;DHT22;8829;47.932;7.810;2022-12-18T05:30:07;-8.70;99.90
17423;DHT22;8829;47.932;7.810;2022-12-18T05:32:34;-8.60;99.90
17423;DHT22;8829;47.932;7.810;2022-12-18T05:35:01;-8.60;99.90
17423;DHT22;8829;47.932;7.810;2022-12-18T05:37:28;-8.60;99.90
17423;DHT22;8829;47.932;7.810;2022-12-18T05:39:54;-8.70;99.90
17423;DHT22;8829;47.932;7.810;2022-12-18T05:42:23;-8.60;99.90
17423;DHT22;8829;47.932;7.810;2022-12-18T05:44:49;-8.50;99.90
17423;DHT22;8829;47.932;7.810;2022-12-18T05:47:16;-8.40;99.90
17423;DHT22;8829;47.932;7.810;2022-12-18T05:49:43;-8.40;99.90
17423;DHT22;8829;47.932;7.810;2022-12-18T05:52:10;-8.60;99.90
17423;DHT22;8829;47.932;7.810;2022-12-18T05:54:37;-8.60;99.90
17423;DHT22;8829;47.932;7.810;2022-12-18T05:57:04;-8.60;99.90
17423;DHT22;8829;47.932;7.810;2022-12-18T05:59:32;-8.70;99.90
17423;DHT22;8829;47.932;7.810;2022-12-18T06:01:59;-8.50;99.90
17423;DHT22;8829;47.932;7.810;2022-12-18T06:04:26;-8.40;99.90
17423;DHT22;8829;47.932;7.810;2022-12-18T06:07:03;-8.40;99.90
17423;DHT22;8829;47.932;7.810;2022-12-18T06:09:30;-8.30;99.90
17423;DHT22;8829;47.932;7.810;2022-12-18T06:11:57;-8.20;99.90
17423;DHT22;8829;47.932;7.810;2022-12-18T06:14:24;-8.20;99.90
17423;DHT22;8829;47.932;7.810;2022-12-18T06:16:52;-8.10;99.90
17423;DHT22;8829;47.932;7.810;2022-12-18T06:19:19;-8.20;99.90
17423;DHT22;8829;47.932;7.810;2022-12-18T06:21:46;-8.20;99.90
17423;DHT22;8829;47.932;7.810;2022-12-18T06:24:12;-8.30;99.90
17423;DHT22;8829;47.932;7.810;2022-12-18T06:26:40;-8.60;99.90
17423;DHT22;8829;47.932;7.810;2022-12-18T06:29:06;-8.90;99.90
17423;DHT22;8829;47.932;7.810;2022-12-18T06:31:33;-8.80;99.90
17423;DHT22;8829;47.932;7.810;2022-12-18T06:34:03;-8.70;99.90
17423;DHT22;8829;47.932;7.810;2022-12-18T06:36:30;-8.60;99.90
17423;DHT22;8829;47.932;7.810;2022-12-18T06:38:57;-8.70;99.90
17423;DHT22;8829;47.932;7.810;2022-12-18T06:41:24;-8.80;99.90
17423;DHT22;8829;47.932;7.810;2022-12-18T06:43:51;-8.80;99.90
17423;DHT22;8829;47.932;7.810;2022-12-18T06:46:18;-8.80;99.90
17423;DHT22;8829;47.932;7.810;2022-12-18T06:48:47;-9.20;99.90
17423;DHT22;8829;47.932;7.810;2022-12-18T06:51:18;-9.30;99.90
17423;DHT22;8829;47.932;7.810;2022-12-18T06:53:45;-9.20;99.90
17423;DHT22;8829;47.932;7.810;2022-12-18T06:56:12;-9.30;99.90
17423;DHT22;8829;47.932;7.810;2022-12-18T06:58:39;-9.20;99.90
17423;DHT22;8829;47.932;7.810;2022-12-18T07:01:08;-9.00;99.90
17423;DHT22;8829;47.932;7.810;2022-12-18T07:03:36;-9.00;99.90
17423;DHT22;8829;47.932;7.810;2022-12-18T07:06:03;-8.90;99.90
17423;DHT22;8829;47.932;7.810;2022-12-18T07:08:32;-8.90;99.90
17423;DHT22;8829;47.932;7.810;2022-12-18T07:11:02;-9.10;99.90
17423;DHT22;8829;47.932;7.810;2022-12-18T07:13:29;-9.00;99.90
17423;DHT22;8829;47.932;7.810;2022-12-18T07:16:02;-8.80;99.90
17423;DHT22;8829;47.932;7.810;2022-12-18T07:18:29;-8.70;99.90
17423;DHT22;8829;47.932;7.810;2022-12-18T07:20:55;-8.80;99.90
17423;DHT22;8829;47.932;7.810;2022-12-18T07:23:22;-9.00;99.90
17423;DHT22;8829;47.932;7.810;2022-12-18T07:25:50;-9.00;99.90
17423;DHT22;8829;47.932;7.810;2022-12-18T07:28:17;-8.90;99.90
17423;DHT22;8829;47.932;7.810;2022-12-18T07:30:44;-9.10;99.90
17423;DHT22;8829;47.932;7.810;2022-12-18T07:33:10;-9.00;99.90
17423;DHT22;8829;47.932;7.810;2022-12-18T07:35:37;-9.20;99.90
17423;DHT22;8829;47.932;7.810;2022-12-18T07:38:04;-9.40;99.90
17423;DHT22;8829;47.932;7.810;2022-12-18T07:40:31;-9.50;99.90
17423;DHT22;8829;47.932;7.810;2022-12-18T07:42:59;-9.30;99.90
17423;DHT22;8829;47.932;7.810;2022-12-18T07:45:26;-9.00;99.90
17423;DHT22;8829;47.932;7.810;2022-12-18T07:47:53;-8.70;99.90
17423;DHT22;8829;47.932;7.810;2022-12-18T07:50:19;-8.50;99.90
17423;DHT22;8829;47.932;7.810;2022-12-18T07:52:46;-8.50;99.90
17423;DHT22;8829;47.932;7.810;2022-12-18T07:55:13;-8.50;99.90
17423;DHT22;8829;47.932;7.810;2022-12-18T07:57:40;-8.60;99.90
17423;DHT22;8829;47.932;7.810;2022-12-18T08:00:09;-8.50;99.90
17423;DHT22;8829;47.932;7.810;2022-12-18T08:02:36;-8.40;99.90
17423;DHT22;8829;47.932;7.810;2022-12-18T08:05:03;-8.40;99.90
17423;DHT22;8829;47.932;7.810;2022-12-18T08:07:30;-8.40;99.90
17423;DHT22;8829;47.932;7.810;2022-12-18T08:09:57;-8.40;99.90
17423;DHT22;8829;47.932;7.810;2022-12-18T08:12:23;-8.30;99.90
17423;DHT22;8829;47.932;7.810;2022-12-18T08:14:50;-8.30;99.90
17423;DHT22;8829;47.932;7.810;2022-12-18T08:17:19;-8.20;99.90
17423;DHT22;8829;47.932;7.810;2022-12-18T08:19:46;-8.20;99.90
17423;DHT22;8829;47.932;7.810;2022-12-18T08:22:13;-8.20;99.90
17423;DHT22;8829;47.932;7.810;2022-12-18T08:24:39;-8.80;99.90
17423;DHT22;8829;47.932;7.810;2022-12-18T08:27:06;-8.90;99.90
17423;DHT22;8829;47.932;7.810;2022-12-18T08:29:33;-9.10;99.90
17423;DHT22;8829;47.932;7.810;2022-12-18T08:32:00;-9.40;99.90
17423;DHT22;8829;47.932;7.810;2022-12-18T08:34:28;-9.30;99.90
17423;DHT22;8829;47.932;7.810;2022-12-18T08:36:55;-9.20;99.90
17423;DHT22;8829;47.932;7.810;2022-12-18T08:39:21;-9.00;99.90
17423;DHT22;8829;47.932;7.810;2022-12-18T08:41:49;-8.70;99.90
17423;DHT22;8829;47.932;7.810;2022-12-18T08:44:29;-8.70;99.90
17423;DHT22;8829;47.932;7.810;2022-12-18T08:47:05;-8.60;99.90
17423;DHT22;8829;47.932;7.810;2022-12-18T08:49:34;-8.70;99.90
17423;DHT22;8829;47.932;7.810;2022-12-18T08:52:01;-9.10;99.90
17423;DHT22;8829;47.932;7.810;2022-12-18T08:54:29;-9.00;99.90
17423;DHT22;8829;47.932;7.810;2022-12-18T08:56:55;-8.80;99.90
17423;DHT22;8829;47.932;7.810;2022-12-18T08:59:22;-8.70;99.90
17423;DHT22;8829;47.932;7.810;2022-12-18T09:01:49;-8.90;99.90
17423;DHT22;8829;47.932;7.810;2022-12-18T09:04:16;-8.80;99.90
17423;DHT22;8829;47.932;7.810;2022-12-18T09:06:44;-8.80;99.90
17423;DHT22;8829;47.932;7.810;2022-12-18T09:09:11;-8.70;99.90
17423;DHT22;8829;47.932;7.810;2022-12-18T09:11:38;-8.50;99.90
17423;DHT22;8829;47.932;7.810;2022-12-18T09:14:05;-8.40;99.90
17423;DHT22;8829;47.932;7.810;2022-12-18T09:16:32;-8.20;99.90
17423;DHT22;8829;47.932;7.810;2022-12-18T09:19:01;-8.10;99.90
17423;DHT22;8829;47.932;7.810;2022-12-18T09:21:30;-7.90;99.90
17423;DHT22;8829;47.932;7.810;2022-12-18T09:23:58;-7.80;99.90
17423;DHT22;8829;47.932;7.810;2022-12-18T09:26:26;-7.70;99.90
17423;DHT22;8829;47.932;7.810;2022-12-18T09:28:53;-7.60;99.90
17423;DHT22;8829;47.932;7.810;2022-12-18T09:31:23;-7.30;99.90
17423;DHT22;8829;47.932;7.810;2022-12-18T09:33:50;-7.30;99.90
17423;DHT22;8829;47.932;7.810;2022-12-18T09:36:18;-7.10;99.90
17423;DHT22;8829;47.932;7.810;2022-12-18T09:38:45;-7.10;99.90
17423;DHT22;8829;47.932;7.810;2022-12-18T09:41:27;-7.20;99.90
17423;DHT22;8829;47.932;7.810;2022-12-18T09:44:00;-7.10;99.90
17423;DHT22;8829;47.932;7.810;2022-12-18T09:46:30;-7.00;99.90
17423;DHT22;8829;47.932;7.810;2022-12-18T09:49:02;-7.00;99.90
17423;DHT22;8829;47.932;7.810;2022-12-18T09:51:33;-6.90;99.90
17423;DHT22;8829;47.932;7.810;2022-12-18T09:54:05;-6.80;99.90
17423;DHT22;8829;47.932;7.810;2022-12-18T09:56:40;-6.70;99.90
17423;DHT22;8829;47.932;7.810;2022-12-18T09:59:18;-6.60;99.90
17423;DHT22;8829;47.932;7.810;2022-12-18T10:01:45;-6.50;99.90
17423;DHT22;8829;47.932;7.810;2022-12-18T10:04:12;-6.50;99.90
17423;DHT22;8829;47.932;7.810;2022-12-18T10:06:44;-6.40;99.90
17423;DHT22;8829;47.932;7.810;2022-12-18T10:09:17;-6.50;99.90
17423;DHT22;8829;47.932;7.810;2022-12-18T10:11:53;-6.30;99.90
17423;DHT22;8829;47.932;7.810;2022-12-18T10:14:27;-6.20;99.90
17423;DHT22;8829;47.932;7.810;2022-12-18T10:17:02;-6.10;99.90
17423;DHT22;8829;47.932;7.810;2022-12-18T10:19:42;-6.00;99.90
17423;DHT22;8829;47.932;7.810;2022-12-18T10:22:22;-6.00;99.90
17423;DHT22;8829;47.932;7.810;2022-12-18T10:24:55;-6.00;99.90
17423;DHT22;8829;47.932;7.810;2022-12-18T10:27:28;-5.90;99.90
17423;DHT22;8829;47.932;7.810;2022-12-18T10:29:57;-5.80;99.90
17423;DHT22;8829;47.932;7.810;2022-12-18T10:32:26;-5.70;99.90
17423;DHT22;8829;47.932;7.810;2022-12-18T10:34:55;-5.70;99.90
17423;DHT22;8829;47.932;7.810;2022-12-18T10:37:24;-5.60;99.90
17423;DHT22;8829;47.932;7.810;2022-12-18T10:40:08;-5.50;99.90
17423;DHT22;8829;47.932;7.810;2022-12-18T10:42:37;-5.40;99.90
17423;DHT22;8829;47.932;7.810;2022-12-18T10:45:13;-5.30;99.90
17423;DHT22;8829;47.932;7.810;2022-12-18T10:47:45;-5.20;99.90
17423;DHT22;8829;47.932;7.810;2022-12-18T10:50:22;-5.10;99.90
17423;DHT22;8829;47.932;7.810;2022-12-18T10:52:55;-4.90;99.90
17423;DHT22;8829;47.932;7.810;2022-12-18T10:55:22;-4.90;99.90
17423;DHT22;8829;47.932;7.810;2022-12-18T10:57:51;-4.80;99.90
17423;DHT22;8829;47.932;7.810;2022-12-18T11:00:24;-4.70;99.90
17423;DHT22;8829;47.932;7.810;2022-12-18T11:02:52;-4.70;99.90
17423;DHT22;8829;47.932;7.810;2022-12-18T11:05:29;-4.60;99.90
17423;DHT22;8829;47.932;7.810;2022-12-18T11:07:57;-4.40;99.90
17423;DHT22;8829;47.932;7.810;2022-12-18T11:10:29;-4.50;99.90
17423;DHT22;8829;47.932;7.810;2022-12-18T11:13:10;-4.40;99.90
17423;DHT22;8829;47.932;7.810;2022-12-18T11:15:40;-4.30;99.90
17423;DHT22;8829;47.932;7.810;2022-12-18T11:18:16;-4.10;99.90
17423;DHT22;8829;47.932;7.810;2022-12-18T11:20:50;-4.10;99.90
17423;DHT22;8829;47.932;7.810;2022-12-18T11:23:19;-4.10;99.90
17423;DHT22;8829;47.932;7.810;2022-12-18T11:25:52;-3.90;99.90
17423;DHT22;8829;47.932;7.810;2022-12-18T11:28:37;-3.90;99.90
17423;DHT22;8829;47.932;7.810;2022-12-18T11:31:25;-3.80;99.90
17423;DHT22;8829;47.932;7.810;2022-12-18T11:34:02;-3.80;99.90
17423;DHT22;8829;47.932;7.810;2022-12-18T11:36:33;-3.70;99.90
17423;DHT22;8829;47.932;7.810;2022-12-18T11:39:09;-3.70;99.90
17423;DHT22;8829;47.932;7.810;2022-12-18T11:41:43;-3.60;99.90
17423;DHT22;8829;47.932;7.810;2022-12-18T11:44:38;-3.60;99.90
17423;DHT22;8829;47.932;7.810;2022-12-18T11:47:12;-3.60;99.90
17423;DHT22;8829;47.932;7.810;2022-12-18T11:49:40;-3.60;99.90
17423;DHT22;8829;47.932;7.810;2022-12-18T11:52:13;-3.50;99.90
17423;DHT22;8829;47.932;7.810;2022-12-18T11:54:41;-3.50;99.90
17423;DHT22;8829;47.932;7.810;2022-12-18T11:57:15;-3.30;99.90
17423;DHT22;8829;47.932;7.810;2022-12-18T11:59:52;-3.30;99.90
17423;DHT22;8829;47.932;7.810;2022-12-18T12:02:49;-3.30;99.90
17423;DHT22;8829;47.932;7.810;2022-12-18T12:05:37;-3.20;99.90
17423;DHT22;8829;47.932;7.810;2022-12-18T12:08:10;-3.20;99.90
17423;DHT22;8829;47.932;7.810;2022-12-18T12:10:50;-3.10;99.90
17423;DHT22;8829;47.932;7.810;2022-12-18T12:13:35;-3.00;99.90
17423;DHT22;8829;47.932;7.810;2022-12-18T12:16:14;-3.10;99.90
17423;DHT22;8829;47.932;7.810;2022-12-18T12:19:06;-3.20;99.90
17423;DHT22;8829;47.932;7.810;2022-12-18T12:21:40;-3.30;99.90
17423;DHT22;8829;47.932;7.810;2022-12-18T12:24:19;-3.50;99.90
17423;DHT22;8829;47.932;7.810;2022-12-18T12:26:53;-3.50;99.90
17423;DHT22;8829;47.932;7.810;2022-12-18T12:29:29;-3.60;99.90
17423;DHT22;8829;47.932;7.810;2022-12-18T12:32:13;-3.40;99.90
17423;DHT22;8829;47.932;7.810;2022-12-18T12:34:53;-3.40;99.90
17423;DHT22;8829;47.932;7.810;2022-12-18T12:37:30;-3.50;99.90
17423;DHT22;8829;47.932;7.810;2022-12-18T12:40:01;-3.50;99.90
17423;DHT22;8829;47.932;7.810;2022-12-18T12:42:33;-3.60;99.90
17423;DHT22;8829;47.932;7.810;2022-12-18T12:45:22;-3.50;99.90
17423;DHT22;8829;47.932;7.810;2022-12-18T12:47:54;-3.30;99.90
17423;DHT22;8829;47.932;7.810;2022-12-18T12:50:22;-3.20;99.90
17423;DHT22;8829;47.932;7.810;2022-12-18T12:52:52;-3.00;99.90
17423;DHT22;8829;47.932;7.810;2022-12-18T12:55:22;-3.10;99.90
17423;DHT22;8829;47.932;7.810;2022-12-18T12:57:57;-3.10;99.90
17423;DHT22;8829;47.932;7.810;2022-12-18T13:00:25;-3.20;99.90
17423;DHT22;8829;47.932;7.810;2022-12-18T13:03:01;-3.10;99.90
17423;DHT22;8829;47.932;7.810;2022-12-18T13:05:33;-2.90;99.90
17423;DHT22;8829;47.932;7.810;2022-12-18T13:08:03;-2.70;99.90
17423;DHT22;8829;47.932;7.810;2022-12-18T13:10:33;-2.70;99.90
17423;DHT22;8829;47.932;7.810;2022-12-18T13:13:03;-2.80;99.90
17423;DHT22;8829;47.932;7.810;2022-12-18T13:15:33;-2.90;99.90
17423;DHT22;8829;47.932;7.810;2022-12-18T13:18:16;-3.00;99.90
17423;DHT22;8829;47.932;7.810;2022-12-18T13:20:45;-3.00;99.90
17423;DHT22;8829;47.932;7.810;2022-12-18T13:23:31;-2.90;99.90
17423;DHT22;8829;47.932;7.810;2022-12-18T13:25:58;-2.60;99.90
17423;DHT22;8829;47.932;7.810;2022-12-18T13:28:51;-2.50;99.90
17423;DHT22;8829;47.932;7.810;2022-12-18T13:34:31;-2.20;99.90
17423;DHT22;8829;47.932;7.810;2022-12-18T13:39:58;-2.00;99.90
17423;DHT22;8829;47.932;7.810;2022-12-18T13:42:40;-2.00;99.90
17423;DHT22;8829;47.932;7.810;2022-12-18T13:45:40;-2.00;99.90
17423;DHT22;8829;47.932;7.810;2022-12-18T13:48:19;-1.90;99.90
17423;DHT22;8829;47.932;7.810;2022-12-18T13:51:05;-2.10;99.90
17423;DHT22;8829;47.932;7.810;2022-12-18T13:53:36;-2.30;99.90
17423;DHT22;8829;47.932;7.810;2022-12-18T13:56:05;-2.20;99.90
17423;DHT22;8829;47.932;7.810;2022-12-18T13:58:32;-2.10;99.90
17423;DHT22;8829;47.932;7.810;2022-12-18T14:00:58;-2.10;99.90
17423;DHT22;8829;47.932;7.810;2022-12-18T14:03:28;-2.30;99.90
17423;DHT22;8829;47.932;7.810;2022-12-18T14:06:00;-2.30;99.90
17423;DHT22;8829;47.932;7.810;2022-12-18T14:08:32;-2.20;99.90
17423;DHT22;8829;47.932;7.810;2022-12-18T14:11:00;-2.20;99.90
17423;DHT22;8829;47.932;7.810;2022-12-18T14:13:31;-2.40;99.90
17423;DHT22;8829;47.932;7.810;2022-12-18T14:16:00;-2.60;99.90
17423;DHT22;8829;47.932;7.810;2022-12-18T14:18:33;-2.40;99.90
17423;DHT22;8829;47.932;7.810;2022-12-18T14:21:04;-2.40;99.90
17423;DHT22;8829;47.932;7.810;2022-12-18T14:23:33;-2.30;99.90
17423;DHT22;8829;47.932;7.810;2022-12-18T14:26:01;-2.40;99.90
17423;DHT22;8829;47.932;7.810;2022-12-18T14:28:28;-2.40;99.90
17423;DHT22;8829;47.932;7.810;2022-12-18T14:30:55;-2.60;99.90
17423;DHT22;8829;47.932;7.810;2022-12-18T14:33:24;-2.60;99.90
17423;DHT22;8829;47.932;7.810;2022-12-18T14:35:57;-2.50;99.90
17423;DHT22;8829;47.932;7.810;2022-12-18T14:38:29;-2.40;99.90
17423;DHT22;8829;47.932;7.810;2022-12-18T14:40:58;-2.40;99.90
17423;DHT22;8829;47.932;7.810;2022-12-18T14:43:26;-2.40;99.90
17423;DHT22;8829;47.932;7.810;2022-12-18T14:45:54;-2.50;99.90
17423;DHT22;8829;47.932;7.810;2022-12-18T14:48:33;-2.50;99.90
17423;DHT22;8829;47.932;7.810;2022-12-18T14:51:03;-2.60;99.90
17423;DHT22;8829;47.932;7.810;2022-12-18T14:53:41;-2.60;99.90
17423;DHT22;8829;47.932;7.810;2022-12-18T14:56:14;-2.60;99.90
17423;DHT22;8829;47.932;7.810;2022-12-18T14:58:45;-2.80;99.90
17423;DHT22;8829;47.932;7.810;2022-12-18T15:01:19;-2.90;99.90
17423;DHT22;8829;47.932;7.810;2022-12-18T15:03:46;-3.00;99.90
17423;DHT22;8829;47.932;7.810;2022-12-18T15:06:17;-3.00;99.90
17423;DHT22;8829;47.932;7.810;2022-12-18T15:08:46;-3.00;99.90
17423;DHT22;8829;47.932;7.810;2022-12-18T15:11:32;-2.90;99.90
17423;DHT22;8829;47.932;7.810;2022-12-18T15:14:00;-2.90;99.90
17423;DHT22;8829;47.932;7.810;2022-12-18T15:16:27;-2.90;99.90
17423;DHT22;8829;47.932;7.810;2022-12-18T15:18:54;-2.90;99.90
17423;DHT22;8829;47.932;7.810;2022-12-18T15:21:21;-2.80;99.90
17423;DHT22;8829;47.932;7.810;2022-12-18T15:23:50;-2.70;99.90
17423;DHT22;8829;47.932;7.810;2022-12-18T15:26:18;-2.70;99.90
17423;DHT22;8829;47.932;7.810;2022-12-18T15:28:47;-2.70;99.90
17423;DHT22;8829;47.932;7.810;2022-12-18T15:31:28;-2.70;99.90
17423;DHT22;8829;47.932;7.810;2022-12-18T15:34:10;-2.60;99.90
17423;DHT22;8829;47.932;7.810;2022-12-18T15:36:39;-2.60;99.90
17423;DHT22;8829;47.932;7.810;2022-12-18T15:39:10;-2.50;99.90
17423;DHT22;8829;47.932;7.810;2022-12-18T15:41:39;-2.60;99.90
17423;DHT22;8829;47.932;7.810;2022-12-18T15:44:21;-2.70;99.90
17423;DHT22;8829;47.932;7.810;2022-12-18T15:46:47;-2.80;99.90
17423;DHT22;8829;47.932;7.810;2022-12-18T15:49:14;-2.90;99.90
17423;DHT22;8829;47.932;7.810;2022-12-18T15:51:41;-2.90;99.90
17423;DHT22;8829;47.932;7.810;2022-12-18T15:54:13;-2.90;99.90
17423;DHT22;8829;47.932;7.810;2022-12-18T15:56:41;-2.90;99.90
17423;DHT22;8829;47.932;7.810;2022-12-18T15:59:25;-2.90;99.90
17423;DHT22;8829;47.932;7.810;2022-12-18T16:01:53;-2.90;99.90
17423;DHT22;8829;47.932;7.810;2022-12-18T16:04:21;-1.80;99.90
17423;DHT22;8829;47.932;7.810;2022-12-18T16:06:49;-2.90;99.90
17423;DHT22;8829;47.932;7.810;2022-12-18T16:09:18;-2.90;99.90
17423;DHT22;8829;47.932;7.810;2022-12-18T16:11:45;-2.90;99.90